sensor_id;sensor_type;location;lat;lon;timestamp;temperature;humidity
1700;DHT22;847;48.058;7.810;2022-10-26T00:00:49;14.00;99.00
1700;DHT22;847;48.058;7.810;2022-10-26T00:03:17;14.00;99.00
1700;DHT22;847;48.058;7.810;2022-10-26T00:05:44;14.00;99.00
1700;DHT22;847;48.058;7.810;2022-10-26T00:08:11;14.00;99.00
1700;DHT22;847;48.058;7.810;2022-10-26T00:10:38;14.10;99.00
1700;DHT22;847;48.058;7.810;2022-10-26T00:13:09;14.10;99.00
1700;DHT22;847;48.058;7.810;2022-10-26T00:15:40;14.10;99.00
1700;DHT22;847;48.058;7.810;2022-10-26T00:18:07;14.20;99.00
1700;DHT22;847;48.058;7.810;2022-10-26T00:20:34;14.20;99.00
1700;DHT22;847;48.058;7.810;2022-10-26T00:23:01;14.20;99.00
1700;DHT22;847;48.058;7.810;2022-10-26T00:25:27;14.10;99.00
1700;DHT22;847;48.058;7.810;2022-10-26T00:27:54;14.10;99.00
1700;DHT22;847;48.058;7.810;2022-10-26T00:30:21;14.10;99.00
1700;DHT22;847;48.058;7.810;2022-10-26T00:32:49;14.00;99.00
1700;DHT22;847;48.058;7.810;2022-10-26T00:35:16;14.00;99.00
1700;DHT22;847;48.058;7.810;2022-10-26T00:37:43;14.00;99.00
1700;DHT22;847;48.058;7.810;2022-10-26T00:40:10;14.00;99.00
1700;DHT22;847;48.058;7.810;2022-10-26T00:42:37;13.90;99.00
1700;DHT22;847;48.058;7.810;2022-10-26T00:45:14;13.90;99.00
1700;DHT22;847;48.058;7.810;2022-10-26T00:47:45;13.90;99.00
1700;DHT22;847;48.058;7.810;2022-10-26T00:50:17;13.90;99.00
1700;DHT22;847;48.058;7.810;2022-10-26T00:52:46;13.90;99.00
1700;DHT22;847;48.058;7.810;2022-10-26T00:55:14;13.90;99.00
1700;DHT22;847;48.058;7.810;2022-10-26T00:57:46;13.90;99.00
1700;DHT22;847;48.058;7.810;2022-10-26T01:00:13;13.90;99.00
1700;DHT22;847;48.058;7.810;2022-10-26T01:02:41;13.90;99.00
1700;DHT22;847;48.058;7.810;2022-10-26T01:05:09;13.70;99.00
1700;DHT22;847;48.058;7.810;2022-10-26T01:07:38;13.70;99.00
1700;DHT22;847;48.058;7.810;2022-10-26T01:10:06;13.70;99.00
1700;DHT22;847;48.058;7.810;2022-10-26T01:12:33;13.60;99.00
1700;DHT22;847;48.058;7.810;2022-10-26T01:15:01;13.70;99.00
1700;DHT22;847;48.058;7.810;2022-10-26T01:17:37;13.60;99.00
1700;DHT22;847;48.058;7.810;2022-10-26T01:20:28;13.70;99.00
1700;DHT22;847;48.058;7.810;2022-10-26T01:23:05;13.70;99.00
1700;DHT22;847;48.058;7.810;2022-10-26T01:25:44;13.70;99.00
1700;DHT22;847;48.058;7.810;2022-10-26T01:28:28;13.70;99.00
1700;DHT22;847;48.058;7.810;2022-10-26T01:31:00;13.80;99.00
1700;DHT22;847;48.058;7.810;2022-10-26T01:33:32;13.80;99.00
1700;DHT22;847;48.058;7.810;2022-10-26T01:36:07;13.80;99.00
1700;DHT22;847;48.058;7.810;2022-10-26T01:38:46;13.80;99.00
1700;DHT22;847;48.058;7.810;2022-10-26T01:41:21;13.80;99.00
1700;DHT22;847;48.058;7.810;2022-10-26T01:43:54;13.80;99.00
1700;DHT22;847;48.058;7.810;2022-10-26T01:46:25;13.80;99.00
1700;DHT22;847;48.058;7.810;2022-10-26T01:48:57;13.80;99.00
1700;DHT22;847;48.058;7.810;2022-10-26T01:51:25;13.90;99.00
1700;DHT22;847;48.058;7.810;2022-10-26T01:53:53;13.90;99.00
1700;DHT22;847;48.058;7.810;2022-10-26T01:56:21;13.90;99.00
1700;DHT22;847;48.058;7.810;2022-10-26T01:59:00;13.90;99.00
1700;DHT22;847;48.058;7.810;2022-10-26T02:01:43;13.90;99.00
1700;DHT22;847;48.058;7.810;2022-10-26T02:04:21;13.90;99.00
1700;DHT22;847;48.058;7.810;2022-10-26T02:06:56;13.90;99.00
1700;DHT22;847;48.058;7.810;2022-10-26T02:09:28;13.80;99.00
1700;DHT22;847;48.058;7.810;2022-10-26T02:12:02;13.80;99.00
1700;DHT22;847;48.058;7.810;2022-10-26T02:14:35;13.90;99.00
1700;DHT22;847;48.058;7.810;2022-10-26T02:17:09;14.00;99.00
1700;DHT22;847;48.058;7.810;2022-10-26T02:19:42;14.00;99.00
1700;DHT22;847;48.058;7.810;2022-10-26T02:22:14;14.00;99.00
1700;DHT22;847;48.058;7.810;2022-10-26T02:24:43;14.00;99.00
1700;DHT22;847;48.058;7.810;2022-10-26T02:27:15;14.00;99.00
1700;DHT22;847;48.058;7.810;2022-10-26T02:29:45;14.00;99.00
1700;DHT22;847;48.058;7.810;2022-10-26T02:32:15;13.90;99.00
1700;DHT22;847;48.058;7.810;2022-10-26T02:34:44;14.00;99.00
1700;DHT22;847;48.058;7.810;2022-10-26T02:37:14;13.90;99.00
1700;DHT22;847;48.058;7.810;2022-10-26T02:39:44;13.90;99.00
1700;DHT22;847;48.058;7.810;2022-10-26T02:42:12;13.90;99.00
1700;DHT22;847;48.058;7.810;2022-10-26T02:44:43;13.90;99.00
1700;DHT22;847;48.058;7.810;2022-10-26T02:47:13;13.80;99.00
1700;DHT22;847;48.058;7.810;2022-10-26T02:49:40;13.80;99.00
1700;DHT22;847;48.058;7.810;2022-10-26T02:52:11;13.80;99.00
1700;DHT22;847;48.058;7.810;2022-10-26T02:54:49;13.90;99.00
1700;DHT22;847;48.058;7.810;2022-10-26T02:57:19;13.80;99.00
1700;DHT22;847;48.058;7.810;2022-10-26T02:59:49;13.90;99.00
1700;DHT22;847;48.058;7.810;2022-10-26T03:02:18;13.90;99.00
1700;DHT22;847;48.058;7.810;2022-10-26T03:04:48;13.80;99.00
1700;DHT22;847;48.058;7.810;2022-10-26T03:07:20;13.90;99.00
1700;DHT22;847;48.058;7.810;2022-10-26T03:09:46;13.80;99.00
1700;DHT22;847;48.058;7.810;2022-10-26T03:12:13;13.90;99.00
1700;DHT22;847;48.058;7.810;2022-10-26T03:14:40;13.90;99.00
1700;DHT22;847;48.058;7.810;2022-10-26T03:17:07;13.90;99.00
1700;DHT22;847;48.058;7.810;2022-10-26T03:19:35;13.90;99.00
1700;DHT22;847;48.058;7.810;2022-10-26T03:22:02;13.80;99.00
1700;DHT22;847;48.058;7.810;2022-10-26T03:24:28;13.80;99.00
1700;DHT22;847;48.058;7.810;2022-10-26T03:26:55;13.80;99.00
1700;DHT22;847;48.058;7.810;2022-10-26T03:29:22;13.80;99.00
1700;DHT22;847;48.058;7.810;2022-10-26T03:31:49;13.80;99.00
1700;DHT22;847;48.058;7.810;2022-10-26T03:34:18;13.80;99.00
1700;DHT22;847;48.058;7.810;2022-10-26T03:36:47;13.80;99.00
1700;DHT22;847;48.058;7.810;2022-10-26T03:39:14;13.80;99.00
1700;DHT22;847;48.058;7.810;2022-10-26T03:41:41;13.80;99.00
1700;DHT22;847;48.058;7.810;2022-10-26T03:44:08;13.80;99.00
1700;DHT22;847;48.058;7.810;2022-10-26T03:46:35;13.80;99.00
1700;DHT22;847;48.058;7.810;2022-10-26T03:49:02;13.90;99.00
1700;DHT22;847;48.058;7.810;2022-10-26T03:51:28;13.90;99.00
1700;DHT22;847;48.058;7.810;2022-10-26T03:53:57;13.90;99.00
1700;DHT22;847;48.058;7.810;2022-10-26T03:56:23;14.00;99.00
1700;DHT22;847;48.058;7.810;2022-10-26T03:58:50;14.00;99.00
1700;DHT22;847;48.058;7.810;2022-10-26T04:01:17;13.90;99.00
1700;DHT22;847;48.058;7.810;2022-10-26T04:03:44;13.90;99.00
1700;DHT22;847;48.058;7.810;2022-10-26T04:06:11;13.80;99.00
1700;DHT22;847;48.058;7.810;2022-10-26T04:08:37;13.80;99.00
1700;DHT22;847;48.058;7.810;2022-10-26T04:11:06;13.80;99.00
1700;DHT22;847;48.058;7.810;2022-10-26T04:13:32;13.80;99.00
1700;DHT22;847;48.058;7.810;2022-10-26T04:15:59;13.70;99.00
1700;DHT22;847;48.058;7.810;2022-10-26T04:18:26;13.70;99.00
1700;DHT22;847;48.058;7.810;2022-10-26T04:20:53;13.70;99.00
1700;DHT22;847;48.058;7.810;2022-10-26T04:23:21;13.80;99.00
1700;DHT22;847;48.058;7.810;2022-10-26T04:25:47;13.80;99.00
1700;DHT22;847;48.058;7.810;2022-10-26T04:28:15;13.80;99.00
1700;DHT22;847;48.058;7.810;2022-10-26T04:30:42;13.70;99.00
1700;DHT22;847;48.058;7.810;2022-10-26T04:33:09;13.80;99.00
1700;DHT22;847;48.058;7.810;2022-10-26T04:35:36;13.80;99.00
1700;DHT22;847;48.058;7.810;2022-10-26T04:38:04;13.80;99.00
1700;DHT22;847;48.058;7.810;2022-10-26T04:40:32;13.80;99.00
1700;DHT22;847;48.058;7.810;2022-10-26T04:42:59;13.70;99.00
1700;DHT22;847;48.058;7.810;2022-10-26T04:45:28;13.70;99.00
1700;DHT22;847;48.058;7.810;2022-10-26T04:47:59;13.80;99.00
1700;DHT22;847;48.058;7.810;2022-10-26T04:50:26;13.80;99.00
1700;DHT22;847;48.058;7.810;2022-10-26T04:52:53;13.80;99.00
1700;DHT22;847;48.058;7.810;2022-10-26T04:55:20;13.80;99.00
1700;DHT22;847;48.058;7.810;2022-10-26T04:57:46;13.80;99.00
1700;DHT22;847;48.058;7.810;2022-10-26T05:00:15;13.90;99.00
1700;DHT22;847;48.058;7.810;2022-10-26T05:02:43;13.80;99.00
1700;DHT22;847;48.058;7.810;2022-10-26T05:05:09;13.80;99.00
1700;DHT22;847;48.058;7.810;2022-10-26T05:07:36;13.80;99.00
1700;DHT22;847;48.058;7.810;2022-10-26T05:10:04;13.80;99.00
1700;DHT22;847;48.058;7.810;2022-10-26T05:12:31;13.80;99.00
1700;DHT22;847;48.058;7.810;2022-10-26T05:14:57;13.80;99.00
1700;DHT22;847;48.058;7.810;2022-10-26T05:17:24;13.90;99.00
1700;DHT22;847;48.058;7.810;2022-10-26T05:19:53;13.90;99.00
1700;DHT22;847;48.058;7.810;2022-10-26T05:22:22;13.90;99.00
1700;DHT22;847;48.058;7.810;2022-10-26T05:24:49;13.80;99.00
1700;DHT22;847;48.058;7.810;2022-10-26T05:27:16;13.80;99.00
1700;DHT22;847;48.058;7.810;2022-10-26T05:29:43;13.80;99.00
1700;DHT22;847;48.058;7.810;2022-10-26T05:32:10;13.80;99.00
1700;DHT22;847;48.058;7.810;2022-10-26T05:34:37;13.80;99.00
1700;DHT22;847;48.058;7.810;2022-10-26T05:37:05;13.80;99.00
1700;DHT22;847;48.058;7.810;2022-10-26T05:39:32;13.70;99.00
1700;DHT22;847;48.058;7.810;2022-10-26T05:41:58;13.70;99.00
1700;DHT22;847;48.058;7.810;2022-10-26T05:44:25;13.60;99.00
1700;DHT22;847;48.058;7.810;2022-10-26T05:46:52;13.70;99.00
1700;DHT22;847;48.058;7.810;2022-10-26T05:49:19;13.70;99.00
1700;DHT22;847;48.058;7.810;2022-10-26T05:51:45;13.70;99.00
1700;DHT22;847;48.058;7.810;2022-10-26T05:54:13;13.80;99.00
1700;DHT22;847;48.058;7.810;2022-10-26T05:56:43;13.80;99.00
1700;DHT22;847;48.058;7.810;2022-10-26T05:59:11;13.80;99.00
1700;DHT22;847;48.058;7.810;2022-10-26T06:01:55;13.90;99.00
1700;DHT22;847;48.058;7.810;2022-10-26T06:04:29;13.90;99.00
1700;DHT22;847;48.058;7.810;2022-10-26T06:06:58;13.90;99.00
1700;DHT22;847;48.058;7.810;2022-10-26T06:09:27;13.80;99.00
1700;DHT22;847;48.058;7.810;2022-10-26T06:11:54;13.80;99.00
1700;DHT22;847;48.058;7.810;2022-10-26T06:14:22;13.70;99.00
1700;DHT22;847;48.058;7.810;2022-10-26T06:17:00;13.60;99.00
1700;DHT22;847;48.058;7.810;2022-10-26T06:19:41;13.60;99.00
1700;DHT22;847;48.058;7.810;2022-10-26T06:22:22;13.60;99.00
1700;DHT22;847;48.058;7.810;2022-10-26T06:25:01;13.60;99.00
1700;DHT22;847;48.058;7.810;2022-10-26T06:27:37;13.60;99.00
1700;DHT22;847;48.058;7.810;2022-10-26T06:30:07;13.60;99.00
1700;DHT22;847;48.058;7.810;2022-10-26T06:32:34;13.60;99.00
1700;DHT22;847;48.058;7.810;2022-10-26T06:35:19;13.60;99.00
1700;DHT22;847;48.058;7.810;2022-10-26T06:37:48;13.70;99.00
1700;DHT22;847;48.058;7.810;2022-10-26T06:40:18;13.70;99.00
1700;DHT22;847;48.058;7.810;2022-10-26T06:42:45;13.70;99.00
1700;DHT22;847;48.058;7.810;2022-10-26T06:45:13;13.80;99.00
1700;DHT22;847;48.058;7.810;2022-10-26T06:47:46;13.80;99.00
1700;DHT22;847;48.058;7.810;2022-10-26T06:50:26;13.80;99.00
1700;DHT22;847;48.058;7.810;2022-10-26T06:53:03;13.90;99.00
1700;DHT22;847;48.058;7.810;2022-10-26T06:55:38;13.90;99.00
1700;DHT22;847;48.058;7.810;2022-10-26T06:58:08;13.80;99.00
1700;DHT22;847;48.058;7.810;2022-10-26T07:00:38;13.90;99.00
1700;DHT22;847;48.058;7.810;2022-10-26T07:03:05;14.00;99.00
1700;DHT22;847;48.058;7.810;2022-10-26T07:05:32;14.00;99.00
1700;DHT22;847;48.058;7.810;2022-10-26T07:07:59;14.10;99.00
1700;DHT22;847;48.058;7.810;2022-10-26T07:10:26;14.20;99.00
1700;DHT22;847;48.058;7.810;2022-10-26T07:12:54;14.30;99.00
1700;DHT22;847;48.058;7.810;2022-10-26T07:15:21;14.40;99.00
1700;DHT22;847;48.058;7.810;2022-10-26T07:17:48;14.40;99.00
1700;DHT22;847;48.058;7.810;2022-10-26T07:20:16;14.50;99.00
1700;DHT22;847;48.058;7.810;2022-10-26T07:22:44;14.50;99.00
1700;DHT22;847;48.058;7.810;2022-10-26T07:25:11;14.60;99.00
1700;DHT22;847;48.058;7.810;2022-10-26T07:27:38;14.60;99.00
1700;DHT22;847;48.058;7.810;2022-10-26T07:30:08;14.60;99.00
1700;DHT22;847;48.058;7.810;2022-10-26T07:32:34;14.70;99.00
1700;DHT22;847;48.058;7.810;2022-10-26T07:35:01;14.80;99.00
1700;DHT22;847;48.058;7.810;2022-10-26T07:37:28;14.80;99.00
1700;DHT22;847;48.058;7.810;2022-10-26T07:39:55;14.80;99.00
1700;DHT22;847;48.058;7.810;2022-10-26T07:42:22;14.70;99.00
1700;DHT22;847;48.058;7.810;2022-10-26T07:44:49;14.60;99.00
1700;DHT22;847;48.058;7.810;2022-10-26T07:47:17;14.60;99.00
1700;DHT22;847;48.058;7.810;2022-10-26T07:49:43;14.60;99.00
1700;DHT22;847;48.058;7.810;2022-10-26T07:52:10;14.70;99.00
1700;DHT22;847;48.058;7.810;2022-10-26T07:54:37;14.70;99.00
1700;DHT22;847;48.058;7.810;2022-10-26T07:57:04;14.70;99.00
1700;DHT22;847;48.058;7.810;2022-10-26T07:59:30;14.70;99.00
1700;DHT22;847;48.058;7.810;2022-10-26T08:01:57;14.70;99.00
1700;DHT22;847;48.058;7.810;2022-10-26T08:04:25;14.80;99.00
1700;DHT22;847;48.058;7.810;2022-10-26T08:06:52;14.80;99.00
1700;DHT22;847;48.058;7.810;2022-10-26T08:09:19;14.80;99.00
1700;DHT22;847;48.058;7.810;2022-10-26T08:11:46;14.80;99.00
1700;DHT22;847;48.058;7.810;2022-10-26T08:14:13;14.90;99.00
1700;DHT22;847;48.058;7.810;2022-10-26T08:16:39;14.90;99.00
1700;DHT22;847;48.058;7.810;2022-10-26T08:19:06;14.90;99.00
1700;DHT22;847;48.058;7.810;2022-10-26T08:21:34;15.00;99.00
1700;DHT22;847;48.058;7.810;2022-10-26T08:24:01;15.00;99.00
1700;DHT22;847;48.058;7.810;2022-10-26T08:26:28;15.00;99.00
1700;DHT22;847;48.058;7.810;2022-10-26T08:28:55;15.00;99.00
1700;DHT22;847;48.058;7.810;2022-10-26T08:31:22;15.10;99.00
1700;DHT22;847;48.058;7.810;2022-10-26T08:33:49;15.10;99.00
1700;DHT22;847;48.058;7.810;2022-10-26T08:36:21;15.20;99.00
1700;DHT22;847;48.058;7.810;2022-10-26T08:38:50;15.20;99.00
1700;DHT22;847;48.058;7.810;2022-10-26T08:41:19;15.20;99.00
1700;DHT22;847;48.058;7.810;2022-10-26T08:43:52;15.30;99.00
1700;DHT22;847;48.058;7.810;2022-10-26T08:47:05;15.30;99.00
1700;DHT22;847;48.058;7.810;2022-10-26T08:49:40;15.30;99.00
1700;DHT22;847;48.058;7.810;2022-10-26T08:52:11;15.30;99.00
1700;DHT22;847;48.058;7.810;2022-10-26T08:54:42;15.30;99.00
1700;DHT22;847;48.058;7.810;2022-10-26T08:57:16;15.40;99.00
1700;DHT22;847;48.058;7.810;2022-10-26T08:59:49;15.40;99.00
1700;DHT22;847;48.058;7.810;2022-10-26T09:02:19;15.40;99.00
1700;DHT22;847;48.058;7.810;2022-10-26T09:04:47;15.50;99.00
1700;DHT22;847;48.058;7.810;2022-10-26T09:07:27;15.50;99.00
1700;DHT22;847;48.058;7.810;2022-10-26T09:10:23;15.60;99.00
1700;DHT22;847;48.058;7.810;2022-10-26T09:12:58;15.60;99.00
1700;DHT22;847;48.058;7.810;2022-10-26T09:15:37;15.60;99.00
1700;DHT22;847;48.058;7.810;2022-10-26T09:18:15;15.60;99.00
1700;DHT22;847;48.058;7.810;2022-10-26T09:21:06;15.70;99.00
1700;DHT22;847;48.058;7.810;2022-10-26T09:23:53;15.70;99.00
1700;DHT22;847;48.058;7.810;2022-10-26T09:26:28;15.80;99.00
1700;DHT22;847;48.058;7.810;2022-10-26T09:29:00;15.80;99.00
1700;DHT22;847;48.058;7.810;2022-10-26T09:31:27;15.90;99.00
1700;DHT22;847;48.058;7.810;2022-10-26T09:33:56;16.00;99.00
1700;DHT22;847;48.058;7.810;2022-10-26T09:36:25;16.10;99.00
1700;DHT22;847;48.058;7.810;2022-10-26T09:38:55;16.10;99.00
1700;DHT22;847;48.058;7.810;2022-10-26T09:41:28;16.20;99.00
1700;DHT22;847;48.058;7.810;2022-10-26T09:44:02;16.20;99.00
1700;DHT22;847;48.058;7.810;2022-10-26T09:46:38;16.30;99.00
1700;DHT22;847;48.058;7.810;2022-10-26T09:49:11;16.40;99.00
1700;DHT22;847;48.058;7.810;2022-10-26T09:51:39;16.50;99.00
1700;DHT22;847;48.058;7.810;2022-10-26T09:54:12;16.70;99.00
1700;DHT22;847;48.058;7.810;2022-10-26T09:56:42;16.80;99.00
1700;DHT22;847;48.058;7.810;2022-10-26T09:59:11;16.90;99.00
1700;DHT22;847;48.058;7.810;2022-10-26T10:01:38;16.90;99.00
1700;DHT22;847;48.058;7.810;2022-10-26T10:04:15;17.00;99.00
1700;DHT22;847;48.058;7.810;2022-10-26T10:06:45;17.00;99.00
1700;DHT22;847;48.058;7.810;2022-10-26T10:09:14;17.10;99.00
1700;DHT22;847;48.058;7.810;2022-10-26T10:11:45;17.20;99.00
1700;DHT22;847;48.058;7.810;2022-10-26T10:14:20;17.30;99.00
1700;DHT22;847;48.058;7.810;2022-10-26T10:16:54;17.50;99.00
1700;DHT22;847;48.058;7.810;2022-10-26T10:19:26;17.50;99.00
1700;DHT22;847;48.058;7.810;2022-10-26T10:21:56;17.70;99.00
1700;DHT22;847;48.058;7.810;2022-10-26T10:24:26;17.80;99.00
1700;DHT22;847;48.058;7.810;2022-10-26T10:27:01;18.00;99.00
1700;DHT22;847;48.058;7.810;2022-10-26T10:29:30;18.20;99.00
1700;DHT22;847;48.058;7.810;2022-10-26T10:31:58;18.30;98.00
1700;DHT22;847;48.058;7.810;2022-10-26T10:34:26;18.30;97.70
1700;DHT22;847;48.058;7.810;2022-10-26T10:36:53;18.30;98.00
1700;DHT22;847;48.058;7.810;2022-10-26T10:39:37;18.30;97.60
1700;DHT22;847;48.058;7.810;2022-10-26T10:42:14;18.40;97.40
1700;DHT22;847;48.058;7.810;2022-10-26T10:44:44;18.60;96.90
1700;DHT22;847;48.058;7.810;2022-10-26T10:47:20;18.60;96.90
1700;DHT22;847;48.058;7.810;2022-10-26T10:49:56;18.70;96.80
1700;DHT22;847;48.058;7.810;2022-10-26T10:52:26;18.90;94.30
1700;DHT22;847;48.058;7.810;2022-10-26T10:55:02;19.00;94.90
1700;DHT22;847;48.058;7.810;2022-10-26T10:57:41;19.20;94.00
1700;DHT22;847;48.058;7.810;2022-10-26T11:00:11;19.30;93.50
1700;DHT22;847;48.058;7.810;2022-10-26T11:02:56;19.20;93.40
1700;DHT22;847;48.058;7.810;2022-10-26T11:05:34;19.30;93.60
1700;DHT22;847;48.058;7.810;2022-10-26T11:08:05;19.20;93.70
1700;DHT22;847;48.058;7.810;2022-10-26T11:10:35;19.30;93.30
1700;DHT22;847;48.058;7.810;2022-10-26T11:13:14;19.30;93.20
1700;DHT22;847;48.058;7.810;2022-10-26T11:15:44;19.20;93.00
1700;DHT22;847;48.058;7.810;2022-10-26T11:18:16;19.30;93.60
1700;DHT22;847;48.058;7.810;2022-10-26T11:20:48;19.40;93.00
1700;DHT22;847;48.058;7.810;2022-10-26T11:23:20;19.40;93.40
1700;DHT22;847;48.058;7.810;2022-10-26T11:25:51;19.40;93.40
1700;DHT22;847;48.058;7.810;2022-10-26T11:28:32;19.40;92.20
1700;DHT22;847;48.058;7.810;2022-10-26T11:31:04;19.50;92.30
1700;DHT22;847;48.058;7.810;2022-10-26T11:33:37;19.50;92.60
1700;DHT22;847;48.058;7.810;2022-10-26T11:36:08;19.50;92.80
1700;DHT22;847;48.058;7.810;2022-10-26T11:38:38;19.50;93.40
1700;DHT22;847;48.058;7.810;2022-10-26T11:41:13;19.60;93.00
1700;DHT22;847;48.058;7.810;2022-10-26T11:43:44;19.60;93.50
1700;DHT22;847;48.058;7.810;2022-10-26T11:46:14;19.60;92.00
1700;DHT22;847;48.058;7.810;2022-10-26T11:48:48;19.60;92.40
1700;DHT22;847;48.058;7.810;2022-10-26T11:51:21;19.60;93.10
1700;DHT22;847;48.058;7.810;2022-10-26T11:53:50;19.60;93.20
1700;DHT22;847;48.058;7.810;2022-10-26T11:56:28;19.70;93.10
1700;DHT22;847;48.058;7.810;2022-10-26T11:58:58;19.70;92.50
1700;DHT22;847;48.058;7.810;2022-10-26T12:01:27;19.70;93.20
1700;DHT22;847;48.058;7.810;2022-10-26T12:03:56;19.70;92.40
1700;DHT22;847;48.058;7.810;2022-10-26T12:06:27;19.80;92.90
1700;DHT22;847;48.058;7.810;2022-10-26T12:08:58;19.70;92.80
1700;DHT22;847;48.058;7.810;2022-10-26T12:11:34;19.80;92.60
1700;DHT22;847;48.058;7.810;2022-10-26T12:14:14;19.80;92.90
1700;DHT22;847;48.058;7.810;2022-10-26T12:16:50;19.90;93.00
1700;DHT22;847;48.058;7.810;2022-10-26T12:19:24;19.80;92.50
1700;DHT22;847;48.058;7.810;2022-10-26T12:21:54;19.80;92.80
1700;DHT22;847;48.058;7.810;2022-10-26T12:24:28;19.90;92.40
1700;DHT22;847;48.058;7.810;2022-10-26T12:27:01;19.90;92.80
1700;DHT22;847;48.058;7.810;2022-10-26T12:29:35;19.90;92.60
1700;DHT22;847;48.058;7.810;2022-10-26T12:32:04;19.90;92.00
1700;DHT22;847;48.058;7.810;2022-10-26T12:37:50;20.00;92.20
1700;DHT22;847;48.058;7.810;2022-10-26T12:40:39;20.00;91.30
1700;DHT22;847;48.058;7.810;2022-10-26T12:43:32;20.10;91.00
1700;DHT22;847;48.058;7.810;2022-10-26T12:52:39;20.20;91.00
1700;DHT22;847;48.058;7.810;2022-10-26T12:58:44;20.30;90.60
1700;DHT22;847;48.058;7.810;2022-10-26T13:04:56;20.30;90.00
1700;DHT22;847;48.058;7.810;2022-10-26T13:07:25;20.20;90.10
1700;DHT22;847;48.058;7.810;2022-10-26T13:09:57;20.20;90.80
1700;DHT22;847;48.058;7.810;2022-10-26T13:12:26;20.20;91.20
1700;DHT22;847;48.058;7.810;2022-10-26T13:14:58;20.20;90.60
1700;DHT22;847;48.058;7.810;2022-10-26T13:17:27;20.30;90.60
1700;DHT22;847;48.058;7.810;2022-10-26T13:19:55;20.30;90.50
1700;DHT22;847;48.058;7.810;2022-10-26T13:22:23;20.30;90.70
1700;DHT22;847;48.058;7.810;2022-10-26T13:24:52;20.30;90.80
1700;DHT22;847;48.058;7.810;2022-10-26T13:27:40;20.30;90.20
1700;DHT22;847;48.058;7.810;2022-10-26T13:33:18;20.40;90.20
1700;DHT22;847;48.058;7.810;2022-10-26T13:35:47;20.40;90.30
1700;DHT22;847;48.058;7.810;2022-10-26T13:38:18;20.40;90.60
1700;DHT22;847;48.058;7.810;2022-10-26T13:40:45;20.40;90.30
1700;DHT22;847;48.058;7.810;2022-10-26T13:43:19;20.40;90.60
1700;DHT22;847;48.058;7.810;2022-10-26T13:45:52;20.30;90.60
1700;DHT22;847;48.058;7.810;2022-10-26T13:48:23;20.30;90.10
1700;DHT22;847;48.058;7.810;2022-10-26T13:50:54;20.40;90.10
1700;DHT22;847;48.058;7.810;2022-10-26T13:53:23;20.50;90.00
1700;DHT22;847;48.058;7.810;2022-10-26T13:55:53;20.50;90.20
1700;DHT22;847;48.058;7.810;2022-10-26T13:58:26;20.50;89.90
1700;DHT22;847;48.058;7.810;2022-10-26T14:01:12;20.50;89.70
1700;DHT22;847;48.058;7.810;2022-10-26T14:03:40;20.50;90.20
1700;DHT22;847;48.058;7.810;2022-10-26T14:06:14;20.50;89.80
1700;DHT22;847;48.058;7.810;2022-10-26T14:08:43;20.50;89.70
1700;DHT22;847;48.058;7.810;2022-10-26T14:11:13;20.50;89.80
1700;DHT22;847;48.058;7.810;2022-10-26T14:13:41;20.50;90.00
1700;DHT22;847;48.058;7.810;2022-10-26T14:16:09;20.50;89.70
1700;DHT22;847;48.058;7.810;2022-10-26T14:18:36;20.50;89.20
1700;DHT22;847;48.058;7.810;2022-10-26T14:21:05;20.50;89.60
1700;DHT22;847;48.058;7.810;2022-10-26T14:23:34;20.50;89.70
1700;DHT22;847;48.058;7.810;2022-10-26T14:26:01;20.50;89.40
1700;DHT22;847;48.058;7.810;2022-10-26T14:28:30;20.50;89.50
1700;DHT22;847;48.058;7.810;2022-10-26T14:31:20;20.50;89.60
1700;DHT22;847;48.058;7.810;2022-10-26T14:33:47;20.50;90.10
1700;DHT22;847;48.058;7.810;2022-10-26T14:36:15;20.40;89.90
1700;DHT22;847;48.058;7.810;2022-10-26T14:38:44;20.40;89.70
1700;DHT22;847;48.058;7.810;2022-10-26T14:41:15;20.40;90.00
1700;DHT22;847;48.058;7.810;2022-10-26T14:43:43;20.40;89.80
1700;DHT22;847;48.058;7.810;2022-10-26T14:46:14;20.40;89.70
1700;DHT22;847;48.058;7.810;2022-10-26T14:48:50;20.40;89.80
1700;DHT22;847;48.058;7.810;2022-10-26T14:51:19;20.50;89.90
1700;DHT22;847;48.058;7.810;2022-10-26T14:53:48;20.50;90.00
1700;DHT22;847;48.058;7.810;2022-10-26T14:56:23;20.50;89.80
1700;DHT22;847;48.058;7.810;2022-10-26T14:58:52;20.50;89.60
1700;DHT22;847;48.058;7.810;2022-10-26T15:01:29;20.50;89.70
1700;DHT22;847;48.058;7.810;2022-10-26T15:03:58;20.50;89.70
1700;DHT22;847;48.058;7.810;2022-10-26T15:06:39;20.50;89.70
1700;DHT22;847;48.058;7.810;2022-10-26T15:09:31;20.50;89.70
1700;DHT22;847;48.058;7.810;2022-10-26T15:11:58;20.50;89.90
1700;DHT22;847;48.058;7.810;2022-10-26T15:14:27;20.50;90.20
1700;DHT22;847;48.058;7.810;2022-10-26T15:16:56;20.40;90.30
1700;DHT22;847;48.058;7.810;2022-10-26T15:19:25;20.40;90.40
1700;DHT22;847;48.058;7.810;2022-10-26T15:21:52;20.30;90.50
1700;DHT22;847;48.058;7.810;2022-10-26T15:24:31;20.30;90.80
1700;DHT22;847;48.058;7.810;2022-10-26T15:26:59;20.20;90.80
1700;DHT22;847;48.058;7.810;2022-10-26T15:29:40;20.20;91.10
1700;DHT22;847;48.058;7.810;2022-10-26T15:32:33;20.20;90.80
1700;DHT22;847;48.058;7.810;2022-10-26T15:35:25;20.20;90.90
1700;DHT22;847;48.058;7.810;2022-10-26T15:37:53;20.20;90.80
1700;DHT22;847;48.058;7.810;2022-10-26T15:40:22;20.10;91.20
1700;DHT22;847;48.058;7.810;2022-10-26T15:42:51;20.10;92.30
1700;DHT22;847;48.058;7.810;2022-10-26T15:45:20;20.40;92.90
1700;DHT22;847;48.058;7.810;2022-10-26T15:47:50;20.60;92.20
1700;DHT22;847;48.058;7.810;2022-10-26T15:50:19;20.50;92.00
1700;DHT22;847;48.058;7.810;2022-10-26T15:52:47;20.30;92.70
1700;DHT22;847;48.058;7.810;2022-10-26T15:55:14;20.10;93.60
1700;DHT22;847;48.058;7.810;2022-10-26T15:57:41;20.00;94.30
1700;DHT22;847;48.058;7.810;2022-10-26T16:00:14;19.90;94.60
1700;DHT22;847;48.058;7.810;2022-10-26T16:02:42;19.80;95.10
1700;DHT22;847;48.058;7.810;2022-10-26T16:05:13;20.10;96.70
1700;DHT22;847;48.058;7.810;2022-10-26T16:07:42;20.50;96.00
1700;DHT22;847;48.058;7.810;2022-10-26T16:10:16;21.10;93.40
1700;DHT22;847;48.058;7.810;2022-10-26T16:12:43;21.50;92.10
1700;DHT22;847;48.058;7.810;2022-10-26T16:15:15;21.90;90.80
1700;DHT22;847;48.058;7.810;2022-10-26T16:17:43;22.20;89.40
1700;DHT22;847;48.058;7.810;2022-10-26T16:20:13;22.50;87.60
1700;DHT22;847;48.058;7.810;2022-10-26T16:22:40;23.00;85.70
1700;DHT22;847;48.058;7.810;2022-10-26T16:25:11;22.80;85.80
1700;DHT22;847;48.058;7.810;2022-10-26T16:27:38;22.60;85.70
1700;DHT22;847;48.058;7.810;2022-10-26T16:30:06;22.50;86.40
1700;DHT22;847;48.058;7.810;2022-10-26T16:32:34;22.30;86.60
1700;DHT22;847;48.058;7.810;2022-10-26T16:35:01;22.20;86.80
1700;DHT22;847;48.058;7.810;2022-10-26T16:37:30;22.00;87.10
1700;DHT22;847;48.058;7.810;2022-10-26T16:39:57;21.90;86.90
1700;DHT22;847;48.058;7.810;2022-10-26T16:42:24;21.70;88.10
1700;DHT22;847;48.058;7.810;2022-10-26T16:44:52;21.80;87.40
1700;DHT22;847;48.058;7.810;2022-10-26T16:47:19;21.40;87.90
1700;DHT22;847;48.058;7.810;2022-10-26T16:49:46;21.10;89.10
1700;DHT22;847;48.058;7.810;2022-10-26T16:52:13;20.90;88.80
1700;DHT22;847;48.058;7.810;2022-10-26T16:54:42;20.70;89.60
1700;DHT22;847;48.058;7.810;2022-10-26T16:57:09;20.80;89.60
1700;DHT22;847;48.058;7.810;2022-10-26T16:59:36;20.90;89.20